createdAt,value
2018-07-09T00:01:03.048Z,6.00
2018-07-09T00:03:41.698Z,6.37
2018-07-09T00:06:18.359Z,6.10
2018-07-09T00:08:54.849Z,6.10
2018-07-09T00:11:32.644Z,5.67
2018-07-09T00:14:10.117Z,6.00
2018-07-09T00:16:46.172Z,6.63
2018-07-09T00:19:22.256Z,6.30
2018-07-09T00:21:58.496Z,6.10
2018-07-09T00:24:34.341Z,6.63
2018-07-09T00:27:10.619Z,6.40
2018-07-09T00:29:47.306Z,6.17
2018-07-09T00:32:24.016Z,5.90
2018-07-09T00:35:01.809Z,5.93
2018-07-09T00:37:38.882Z,6.20
2018-07-09T00:40:15.816Z,6.23
2018-07-09T00:42:53.031Z,6.77
2018-07-09T00:45:29.440Z,6.60
2018-07-09T00:48:05.937Z,7.13
2018-07-09T00:50:42.612Z,6.23
2018-07-09T00:53:20.426Z,6.13
2018-07-09T00:55:56.571Z,7.07
2018-07-09T00:58:35.803Z,7.03
2018-07-09T01:01:11.541Z,5.97
2018-07-09T01:03:48.840Z,6.97
2018-07-09T01:06:24.561Z,7.13
2018-07-09T01:09:01.274Z,6.50
2018-07-09T01:11:43.703Z,6.60
2018-07-09T01:14:20.229Z,6.30
2018-07-09T01:16:57.284Z,7.00
2018-07-09T01:19:33.760Z,6.93
2018-07-09T01:22:11.687Z,7.23
2018-07-09T01:24:47.368Z,7.70
2018-07-09T01:27:23.316Z,6.23
2018-07-09T01:30:11.729Z,7.20
2018-07-09T01:32:54.210Z,7.27
2018-07-09T01:35:31.157Z,6.00
2018-07-09T01:38:08.626Z,7.47
2018-07-09T01:40:45.459Z,6.97
2018-07-09T01:43:22.164Z,7.43
2018-07-09T01:45:57.913Z,6.83
2018-07-09T01:48:36.314Z,7.33
2018-07-09T01:51:13.933Z,7.33
2018-07-09T01:53:50.790Z,6.93
2018-07-09T01:56:28.231Z,6.60
2018-07-09T01:59:05.944Z,7.07
2018-07-09T02:01:42.479Z,6.83
2018-07-09T02:04:19.768Z,6.60
2018-07-09T02:06:55.514Z,7.60
2018-07-09T02:09:31.884Z,6.87
2018-07-09T02:12:08.263Z,6.33
2018-07-09T02:14:44.315Z,7.13
2018-07-09T02:17:21.481Z,6.33
2018-07-09T02:19:57.699Z,7.30
2018-07-09T02:22:36.033Z,6.90
2018-07-09T02:25:12.565Z,6.80
2018-07-09T02:27:49.949Z,6.97
2018-07-09T02:30:27.121Z,6.77
2018-07-09T02:33:03.664Z,7.80
2018-07-09T02:35:41.288Z,6.90
2018-07-09T02:38:18.679Z,6.77
2018-07-09T02:40:56.274Z,7.40
2018-07-09T02:43:32.315Z,7.50
2018-07-09T02:46:08.849Z,7.17
2018-07-09T02:48:45.151Z,7.10
2018-07-09T02:51:21.816Z,7.50
2018-07-09T02:53:59.338Z,7.03
2018-07-09T02:56:37.305Z,7.40
2018-07-09T02:59:13.936Z,7.13
2018-07-09T03:01:50.570Z,7.33
2018-07-09T03:04:27.870Z,7.40
2018-07-09T03:07:04.483Z,7.03
2018-07-09T03:09:41.693Z,6.80
2018-07-09T03:12:18.015Z,8.13
2018-07-09T03:14:54.194Z,6.27
2018-07-09T03:17:31.533Z,6.20
2018-07-09T03:20:07.631Z,6.50
2018-07-09T03:22:43.949Z,6.83
2018-07-09T03:25:21.344Z,6.50
2018-07-09T03:27:59.535Z,7.30
2018-07-09T03:30:37.632Z,6.73
2018-07-09T03:33:14.365Z,7.20
2018-07-09T03:35:52.225Z,7.07
2018-07-09T03:38:28.356Z,7.17
2018-07-09T03:41:05.192Z,6.70
2018-07-09T03:43:41.013Z,6.60
2018-07-09T03:46:17.708Z,7.00
2018-07-09T03:48:55.661Z,6.73
2018-07-09T03:51:32.562Z,7.00
2018-07-09T03:54:08.648Z,6.57
2018-07-09T03:56:44.664Z,6.77
2018-07-09T03:59:20.881Z,6.50
2018-07-09T04:01:57.110Z,6.83
2018-07-09T04:04:33.905Z,6.83
2018-07-09T04:07:10.556Z,6.53
2018-07-09T04:09:47.220Z,6.80
2018-07-09T04:12:24.189Z,6.90
2018-07-09T04:15:00.142Z,7.63
2018-07-09T04:17:38.084Z,7.83
2018-07-09T04:20:17.043Z,7.13
2018-07-09T04:22:53.608Z,7.03
2018-07-09T04:25:32.106Z,7.53
2018-07-09T04:28:10.301Z,7.27
2018-07-09T04:30:47.645Z,7.37
2018-07-09T04:33:25.532Z,7.00
2018-07-09T04:36:02.181Z,7.77
2018-07-09T04:38:40.239Z,6.57
2018-07-09T04:41:17.662Z,6.97
2018-07-09T04:43:55.756Z,7.43
2018-07-09T04:46:33.512Z,6.90
2018-07-09T04:49:10.828Z,6.33
2018-07-09T04:51:46.930Z,6.87
2018-07-09T04:54:24.312Z,7.03
2018-07-09T04:57:01.311Z,6.73
2018-07-09T04:59:38.170Z,7.20
2018-07-09T05:02:15.128Z,7.40
2018-07-09T05:04:52.971Z,6.90
2018-07-09T05:07:31.327Z,7.07
2018-07-09T05:10:07.872Z,6.60
2018-07-09T05:12:44.435Z,7.33
2018-07-09T05:15:21.480Z,7.10
2018-07-09T05:17:58.864Z,6.60
2018-07-09T05:20:37.301Z,6.73
2018-07-09T05:23:14.664Z,6.43
2018-07-09T05:25:53.033Z,6.20
2018-07-09T05:28:29.751Z,5.80
2018-07-09T05:31:06.685Z,6.67
2018-07-09T05:33:44.777Z,6.40
2018-07-09T05:36:22.536Z,6.13
2018-07-09T05:39:00.186Z,6.30
2018-07-09T05:41:39.050Z,6.70
2018-07-09T05:44:16.419Z,6.90
2018-07-09T05:46:54.228Z,6.37
2018-07-09T05:49:30.879Z,6.53
2018-07-09T05:52:08.677Z,5.93
2018-07-09T05:54:45.384Z,6.57
2018-07-09T05:57:23.364Z,6.23
2018-07-09T05:59:59.962Z,5.60
2018-07-09T06:02:38.137Z,6.03
2018-07-09T06:05:13.620Z,6.07
2018-07-09T06:07:50.723Z,6.40
2018-07-09T06:10:27.099Z,7.17
2018-07-09T06:13:04.489Z,6.10
2018-07-09T06:15:42.965Z,6.23
2018-07-09T06:18:20.496Z,6.40
2018-07-09T06:20:58.854Z,6.30
2018-07-09T06:23:36.201Z,6.67
2018-07-09T06:26:13.580Z,5.97
2018-07-09T06:28:52.062Z,5.80
2018-07-09T06:31:31.211Z,5.80
2018-07-09T06:34:09.288Z,6.53
2018-07-09T06:36:45.944Z,6.73
2018-07-09T06:39:24.526Z,6.60
2018-07-09T06:42:03.256Z,6.13
2018-07-09T06:44:41.002Z,6.60
2018-07-09T06:47:17.721Z,6.53
2018-07-09T06:49:55.388Z,6.17
2018-07-09T06:52:32.127Z,6.43
2018-07-09T06:55:08.216Z,6.57
2018-07-09T06:57:45.133Z,6.20
2018-07-09T07:00:22.225Z,7.03
2018-07-09T07:02:59.367Z,6.97
2018-07-09T07:05:37.089Z,6.40
2018-07-09T07:08:13.390Z,6.00
2018-07-09T07:10:50.062Z,6.07
2018-07-09T07:13:28.624Z,6.50
2018-07-09T07:16:07.180Z,7.23
2018-07-09T07:18:43.702Z,6.70
2018-07-09T07:21:22.835Z,6.10
2018-07-09T07:23:59.160Z,6.80
2018-07-09T07:26:35.462Z,6.43
2018-07-09T07:29:13.839Z,6.37
2018-07-09T07:31:50.828Z,6.53
2018-07-09T07:34:28.102Z,6.73
2018-07-09T07:37:05.993Z,6.10
2018-07-09T07:39:42.740Z,7.17
2018-07-09T07:42:20.294Z,6.73
2018-07-09T07:44:57.907Z,6.30
2018-07-09T07:47:36.044Z,5.83
2018-07-09T07:50:15.170Z,6.60
2018-07-09T07:52:51.916Z,5.50
2018-07-09T07:55:30.220Z,6.30
2018-07-09T07:58:07.915Z,5.50
2018-07-09T08:00:45.118Z,5.73
2018-07-09T08:03:22.325Z,5.93
2018-07-09T08:05:59.769Z,5.27
2018-07-09T08:08:37.249Z,5.23
2018-07-09T08:11:14.182Z,5.83
2018-07-09T08:13:51.925Z,5.30
2018-07-09T08:16:29.272Z,5.90
2018-07-09T08:19:07.163Z,5.23
2018-07-09T08:21:44.436Z,4.63
2018-07-09T08:24:23.620Z,5.17
2018-07-09T08:27:01.518Z,5.30
2018-07-09T08:29:38.297Z,4.27
2018-07-09T08:32:16.045Z,4.73
2018-07-09T08:34:53.509Z,4.40
2018-07-09T08:37:30.961Z,4.97
2018-07-09T08:40:07.722Z,4.60
2018-07-09T08:42:44.861Z,4.60
2018-07-09T08:45:21.755Z,4.70
2018-07-09T08:47:59.317Z,4.33
2018-07-09T08:50:36.122Z,4.80
2018-07-09T08:53:13.045Z,4.47
2018-07-09T08:55:51.152Z,4.80
2018-07-09T08:58:28.991Z,4.60
2018-07-09T09:01:06.160Z,4.13
2018-07-09T09:03:42.725Z,3.43
2018-07-09T09:06:21.290Z,4.40
2018-07-09T09:08:59.589Z,3.97
2018-07-09T09:11:38.073Z,4.20
2018-07-09T09:14:14.857Z,4.10
2018-07-09T09:16:52.508Z,4.53
2018-07-09T09:19:29.720Z,4.37
2018-07-09T09:22:07.210Z,3.77
2018-07-09T09:24:45.239Z,3.37
2018-07-09T09:27:23.790Z,3.90
2018-07-09T09:30:01.983Z,4.00
2018-07-09T09:32:39.515Z,3.53
2018-07-09T09:35:16.184Z,3.43
2018-07-09T09:37:54.828Z,4.17
2018-07-09T09:40:31.434Z,3.53
2018-07-09T09:43:08.853Z,3.70
2018-07-09T09:45:46.522Z,3.47
2018-07-09T09:48:22.792Z,3.27
2018-07-09T09:51:00.488Z,3.40
2018-07-09T09:53:38.181Z,3.63
2018-07-09T09:56:15.680Z,3.67
2018-07-09T09:58:52.635Z,3.90
2018-07-09T10:01:31.037Z,2.90
2018-07-09T10:04:07.950Z,3.20
2018-07-09T10:06:44.541Z,2.67
2018-07-09T10:09:21.613Z,2.50
2018-07-09T10:11:58.972Z,2.00
2018-07-09T10:14:37.105Z,2.27
2018-07-09T10:17:15.625Z,2.40
2018-07-09T10:19:53.650Z,2.40
2018-07-09T10:22:30.729Z,2.13
2018-07-09T10:25:09.100Z,2.27
2018-07-09T10:27:48.581Z,2.10
2018-07-09T10:30:24.969Z,2.00
2018-07-09T10:33:03.214Z,1.80
2018-07-09T10:35:42.512Z,2.40
2018-07-09T10:38:19.836Z,1.80
2018-07-09T10:40:59.216Z,2.03
2018-07-09T10:43:36.753Z,2.40
2018-07-09T10:46:14.194Z,2.03
2018-07-09T10:48:52.448Z,2.20
2018-07-09T10:51:30.450Z,2.03
2018-07-09T10:54:08.170Z,1.83
2018-07-09T10:56:45.801Z,2.07
2018-07-09T10:59:21.609Z,2.00
2018-07-09T11:01:59.885Z,1.93
2018-07-09T11:04:38.026Z,2.10
2018-07-09T11:07:15.496Z,2.10
2018-07-09T11:09:53.317Z,2.03
2018-07-09T11:12:30.537Z,2.13
2018-07-09T11:15:06.581Z,2.70
2018-07-09T11:17:44.960Z,2.47
2018-07-09T11:20:22.484Z,2.40
2018-07-09T11:23:00.409Z,3.17
2018-07-09T11:25:38.234Z,2.43
2018-07-09T11:28:15.785Z,2.50
2018-07-09T11:30:52.467Z,1.90
2018-07-09T11:33:29.898Z,2.20
2018-07-09T11:36:07.924Z,2.33
2018-07-09T11:38:45.703Z,2.17
2018-07-09T11:41:23.438Z,2.30
2018-07-09T11:43:59.743Z,2.20
2018-07-09T11:46:40.960Z,1.97
2018-07-09T11:49:18.089Z,1.80
2018-07-09T11:51:56.015Z,2.03
2018-07-09T11:54:32.714Z,1.87
2018-07-09T11:57:10.246Z,1.83
2018-07-09T11:59:48.539Z,2.13
2018-07-09T12:02:26.831Z,2.20
2018-07-09T12:05:04.731Z,1.90
2018-07-09T12:07:42.301Z,1.93
2018-07-09T12:10:18.744Z,2.10
2018-07-09T12:12:55.673Z,1.90
2018-07-09T12:15:33.584Z,1.90
2018-07-09T12:18:11.285Z,1.93
2018-07-09T12:20:49.807Z,1.90
2018-07-09T12:23:25.922Z,2.30
2018-07-09T12:26:02.519Z,2.33
2018-07-09T12:28:42.134Z,2.07
2018-07-09T12:31:21.411Z,1.87
2018-07-09T12:33:59.098Z,1.77
2018-07-09T12:36:35.593Z,2.17
2018-07-09T12:39:16.861Z,1.77
2018-07-09T12:41:55.178Z,1.87
2018-07-09T12:44:32.484Z,1.50
2018-07-09T12:47:08.645Z,1.63
2018-07-09T12:49:46.902Z,1.90
2018-07-09T12:52:25.153Z,1.57
2018-07-09T12:55:03.793Z,1.60
2018-07-09T12:57:41.172Z,1.70
2018-07-09T13:00:17.726Z,1.50
2018-07-09T13:02:54.639Z,1.60
2018-07-09T13:05:32.709Z,1.50
2018-07-09T13:08:12.267Z,1.53
2018-07-09T13:10:48.231Z,1.30
2018-07-09T13:13:27.451Z,1.83
2018-07-09T13:16:05.140Z,1.80
2018-07-09T13:18:42.037Z,1.80
2018-07-09T13:21:19.436Z,2.00
2018-07-09T13:23:57.892Z,2.13
2018-07-09T13:26:35.661Z,1.90
2018-07-09T13:29:14.053Z,1.90
2018-07-09T13:31:50.375Z,2.10
2018-07-09T13:34:28.160Z,2.07
2018-07-09T13:37:06.552Z,1.90
2018-07-09T13:39:46.461Z,1.57
2018-07-09T13:42:24.288Z,1.40
2018-07-09T13:45:01.197Z,1.30
2018-07-09T13:47:39.445Z,1.60
2018-07-09T13:50:16.850Z,1.60
2018-07-09T13:52:54.061Z,1.77
2018-07-09T13:55:31.237Z,1.70
2018-07-09T13:58:08.563Z,2.27
2018-07-09T14:00:46.688Z,1.60
2018-07-09T14:03:24.846Z,2.00
2018-07-09T14:06:02.481Z,1.70
2018-07-09T14:08:39.292Z,1.90
2018-07-09T14:11:17.618Z,2.23
2018-07-09T14:13:55.122Z,1.80
2018-07-09T14:16:33.717Z,1.70
2018-07-09T14:19:27.772Z,1.93
2018-07-09T14:22:06.731Z,1.83
2018-07-09T14:24:45.679Z,2.27
2018-07-09T14:27:24.205Z,1.80
2018-07-09T14:30:01.130Z,2.10
2018-07-09T14:32:38.170Z,2.20
2018-07-09T14:35:14.151Z,2.17
2018-07-09T14:37:51.487Z,1.50
2018-07-09T14:40:28.976Z,2.03
2018-07-09T14:43:05.304Z,2.20
2018-07-09T14:45:41.922Z,1.83
2018-07-09T14:48:19.269Z,1.80
2018-07-09T14:50:56.471Z,1.77
2018-07-09T14:53:34.382Z,1.80
2018-07-09T14:56:12.463Z,1.87
2018-07-09T14:58:50.237Z,1.60
2018-07-09T15:01:28.676Z,1.60
2018-07-09T15:04:07.090Z,1.50
2018-07-09T15:06:44.587Z,1.27
2018-07-09T15:09:22.176Z,1.20
2018-07-09T15:11:59.240Z,1.00
2018-07-09T15:14:35.976Z,1.00
2018-07-09T15:17:13.929Z,1.30
2018-07-09T15:19:51.101Z,1.20
2018-07-09T15:22:27.886Z,1.20
2018-07-09T15:25:05.365Z,0.90
2018-07-09T15:27:43.390Z,1.23
2018-07-09T15:30:19.976Z,1.50
2018-07-09T15:32:55.802Z,1.20
2018-07-09T15:35:33.804Z,1.20
2018-07-09T15:38:10.087Z,1.63
2018-07-09T15:40:47.572Z,1.60
2018-07-09T15:43:57.505Z,1.67
2018-07-09T15:46:34.115Z,1.23
2018-07-09T15:49:10.026Z,1.67
2018-07-09T15:51:47.939Z,1.60
2018-07-09T15:54:25.703Z,1.40
2018-07-09T15:57:02.058Z,1.50
2018-07-09T15:59:39.461Z,1.50
2018-07-09T16:02:17.252Z,1.50
2018-07-09T16:04:53.919Z,1.30
2018-07-09T16:07:31.617Z,1.53
2018-07-09T16:10:10.360Z,1.60
2018-07-09T16:12:47.998Z,1.77
2018-07-09T16:15:24.546Z,3.17
2018-07-09T16:18:01.576Z,2.03
2018-07-09T16:20:38.151Z,1.87
2018-07-09T16:23:14.890Z,1.83
2018-07-09T16:25:52.125Z,1.93
2018-07-09T16:28:29.883Z,1.90
2018-07-09T16:31:07.649Z,1.70
2018-07-09T16:33:44.277Z,2.10
2018-07-09T16:36:21.400Z,2.03
2018-07-09T16:38:58.895Z,2.80
2018-07-09T16:41:35.660Z,2.00
2018-07-09T16:44:13.513Z,2.17
2018-07-09T16:46:50.447Z,2.20
2018-07-09T16:49:26.857Z,1.93
2018-07-09T16:52:03.890Z,2.10
2018-07-09T16:54:41.167Z,1.83
2018-07-09T16:57:17.416Z,1.77
2018-07-09T16:59:58.452Z,1.87
2018-07-09T17:02:34.836Z,2.10
2018-07-09T17:05:12.650Z,1.50
2018-07-09T17:07:50.478Z,1.97
2018-07-09T17:10:28.894Z,2.07
2018-07-09T17:13:06.580Z,1.90
2018-07-09T17:15:43.764Z,1.90
2018-07-09T17:18:20.195Z,2.00
2018-07-09T17:20:56.891Z,1.90
2018-07-09T17:23:34.844Z,2.00
2018-07-09T17:26:11.304Z,1.70
2018-07-09T17:28:48.833Z,1.93
2018-07-09T17:31:27.246Z,2.50
2018-07-09T17:34:04.477Z,2.00
2018-07-09T17:36:40.585Z,1.90
2018-07-09T17:39:16.933Z,2.20
2018-07-09T17:41:56.803Z,2.23
2018-07-09T17:44:34.915Z,2.40
2018-07-09T17:47:12.787Z,2.20
2018-07-09T17:49:50.977Z,2.10
2018-07-09T17:52:27.447Z,2.40
2018-07-09T17:55:05.228Z,2.03
2018-07-09T17:57:43.822Z,2.60
2018-07-09T18:00:20.220Z,2.57
2018-07-09T18:02:59.072Z,2.20
2018-07-09T18:05:35.591Z,2.07
2018-07-09T18:08:11.958Z,2.00
2018-07-09T18:10:50.162Z,2.50
2018-07-09T18:13:27.153Z,2.20
2018-07-09T18:16:04.020Z,2.67
2018-07-09T18:18:41.144Z,2.90
2018-07-09T18:21:19.897Z,3.27
2018-07-09T18:23:57.356Z,2.63
2018-07-09T18:26:35.657Z,2.70
2018-07-09T18:29:13.284Z,2.40
2018-07-09T18:31:50.349Z,2.47
2018-07-09T18:34:26.887Z,2.77
2018-07-09T18:37:06.751Z,2.60
2018-07-09T18:39:44.319Z,2.67
2018-07-09T18:42:20.961Z,2.93
2018-07-09T18:44:57.387Z,3.17
2018-07-09T18:47:37.184Z,2.70
2018-07-09T18:50:13.932Z,2.80
2018-07-09T18:52:51.714Z,2.73
2018-07-09T18:55:29.292Z,2.70
2018-07-09T18:58:08.237Z,3.03
2018-07-09T19:00:46.893Z,2.80
2018-07-09T19:03:24.716Z,2.77
2018-07-09T19:07:06.718Z,2.80
2018-07-09T19:09:42.731Z,3.00
2018-07-09T19:12:19.506Z,2.80
2018-07-09T19:14:56.041Z,2.70
2018-07-09T19:19:49.437Z,2.60
2018-07-09T19:22:29.996Z,2.57
2018-07-09T19:25:06.817Z,3.13
2018-07-09T19:27:41.389Z,2.80
2018-07-09T19:30:16.433Z,3.33
2018-07-09T19:32:53.048Z,2.90
2018-07-09T19:35:29.052Z,2.20
2018-07-09T19:38:04.284Z,2.90
2018-07-09T19:40:39.694Z,3.00
2018-07-09T19:43:14.371Z,2.90
2018-07-09T19:45:50.587Z,2.93
2018-07-09T19:48:26.589Z,2.90
2018-07-09T19:51:03.140Z,2.57
2018-07-09T19:53:39.837Z,3.27
2018-07-09T19:56:15.642Z,3.27
2018-07-09T19:58:51.327Z,2.97
2018-07-09T20:01:25.840Z,3.27
2018-07-09T20:04:01.162Z,3.00
2018-07-09T20:06:36.615Z,2.87
2018-07-09T20:09:16.847Z,3.60
2018-07-09T20:11:52.350Z,3.17
2018-07-09T20:14:32.679Z,3.00
2018-07-09T20:17:12.976Z,2.90
2018-07-09T20:19:48.343Z,3.00
2018-07-09T20:22:22.863Z,3.00
2018-07-09T20:24:57.398Z,2.90
2018-07-09T20:27:33.501Z,2.90
2018-07-09T20:30:08.514Z,2.97
2018-07-09T20:32:44.486Z,3.20
2018-07-09T20:35:19.917Z,3.00
2018-07-09T20:37:55.033Z,3.93
2018-07-09T20:40:30.011Z,4.13
2018-07-09T20:43:06.272Z,4.37
2018-07-09T20:45:42.076Z,4.30
2018-07-09T20:48:17.080Z,4.20
2018-07-09T20:50:52.723Z,3.97
2018-07-09T20:53:27.229Z,3.47
2018-07-09T20:56:04.054Z,3.80
2018-07-09T20:58:40.110Z,3.50
2018-07-09T21:01:14.625Z,3.23
2018-07-09T21:03:53.908Z,3.60
2018-07-09T21:06:28.346Z,4.43
2018-07-09T21:09:05.521Z,3.90
2018-07-09T21:11:39.995Z,3.73
2018-07-09T21:14:16.497Z,3.53
2018-07-09T21:16:51.101Z,3.60
2018-07-09T21:19:26.367Z,3.73
2018-07-09T21:22:01.391Z,3.37
2018-07-09T21:24:37.969Z,4.20
2018-07-09T21:27:12.632Z,3.40
2018-07-09T21:29:47.793Z,3.27
2018-07-09T21:32:22.527Z,3.47
2018-07-09T21:35:04.416Z,3.53
2018-07-09T21:37:39.181Z,3.30
2018-07-09T21:40:14.645Z,3.30
2018-07-09T21:42:49.372Z,3.70
2018-07-09T21:45:26.126Z,3.13
2018-07-09T21:48:10.562Z,3.03
2018-07-09T21:50:37.004Z,2.93
2018-07-09T21:53:12.547Z,3.00
2018-07-09T21:55:47.546Z,3.53
2018-07-09T21:58:24.353Z,2.70
2018-07-09T22:01:00.941Z,3.23
2018-07-09T22:03:36.231Z,3.20
2018-07-09T22:06:11.723Z,3.17
2018-07-09T22:08:46.493Z,3.47
2018-07-09T22:11:21.652Z,3.97
2018-07-09T22:13:56.544Z,3.27
2018-07-09T22:16:32.051Z,3.30
2018-07-09T22:19:06.252Z,3.33
2018-07-09T22:21:40.962Z,3.20
2018-07-09T22:24:15.498Z,3.30
2018-07-09T22:26:50.455Z,3.20
2018-07-09T22:29:25.826Z,3.47
2018-07-09T22:32:03.661Z,3.27
2018-07-09T22:34:39.603Z,2.90
2018-07-09T22:37:16.387Z,3.23
2018-07-09T22:39:53.009Z,3.60
2018-07-09T22:42:29.836Z,3.20
2018-07-09T22:45:06.402Z,3.37
2018-07-09T22:47:43.298Z,3.30
2018-07-09T22:50:20.237Z,3.30
2018-07-09T22:52:56.398Z,3.43
2018-07-09T22:55:49.857Z,3.07
2018-07-09T22:58:27.891Z,3.00
2018-07-09T23:01:05.270Z,3.07
2018-07-09T23:03:41.710Z,2.93
2018-07-09T23:06:17.926Z,2.70
2018-07-09T23:17:08.724Z,3.00
2018-07-09T23:22:28.636Z,2.50
2018-07-09T23:25:03.138Z,2.93
2018-07-09T23:27:37.564Z,3.07
2018-07-09T23:30:13.762Z,3.10
2018-07-09T23:32:48.370Z,3.10
2018-07-09T23:35:24.520Z,2.97
2018-07-09T23:37:59.753Z,2.83
2018-07-09T23:40:34.877Z,2.67
2018-07-09T23:43:11.061Z,2.63
2018-07-09T23:45:46.347Z,2.80
2018-07-09T23:48:21.065Z,2.70
2018-07-09T23:50:56.321Z,2.57
2018-07-09T23:53:31.671Z,2.63
2018-07-09T23:56:32.091Z,2.90
2018-07-09T23:59:26.995Z,2.70
